createdAt,value
2023-02-17T00:03:12.489Z,72.99
2023-02-17T00:07:16.190Z,73.63
2023-02-17T00:11:31.005Z,74.06
2023-02-17T00:15:34.383Z,73.90
2023-02-17T00:19:37.394Z,73.66
2023-02-17T00:23:40.781Z,74.13
2023-02-17T00:27:45.460Z,74.19
2023-02-17T00:31:49.315Z,73.86
2023-02-17T00:35:52.537Z,73.65
2023-02-17T00:39:55.836Z,73.30
2023-02-17T00:44:00.869Z,73.15
2023-02-17T00:48:05.141Z,73.36
2023-02-17T00:52:08.328Z,72.87
2023-02-17T00:56:12.060Z,72.90
2023-02-17T01:00:18.230Z,72.89
2023-02-17T01:04:21.864Z,72.21
2023-02-17T01:08:25.907Z,72.52
2023-02-17T01:12:29.466Z,72.78
2023-02-17T01:16:35.962Z,72.08
2023-02-17T01:20:40.612Z,72.19
2023-02-17T01:24:44.126Z,72.70
2023-02-17T01:28:48.850Z,72.42
2023-02-17T01:32:53.527Z,72.67
2023-02-17T01:36:56.936Z,72.11
2023-02-17T01:41:00.463Z,72.64
2023-02-17T01:45:34.419Z,72.65
2023-02-17T01:49:42.370Z,72.38
2023-02-17T01:53:52.438Z,72.21
2023-02-17T01:57:59.244Z,72.49
2023-02-17T02:02:06.940Z,72.63
2023-02-17T02:06:16.293Z,72.54
2023-02-17T02:10:20.447Z,72.38
2023-02-17T02:14:24.573Z,72.58
2023-02-17T02:18:50.902Z,72.45
2023-02-17T02:23:23.434Z,72.61
2023-02-17T02:27:53.336Z,72.36
2023-02-17T02:32:10.900Z,72.66
2023-02-17T02:36:21.981Z,72.19
2023-02-17T02:40:28.920Z,72.12
2023-02-17T02:44:32.616Z,72.35
2023-02-17T02:48:37.394Z,72.56
2023-02-17T02:52:49.800Z,72.00
2023-02-17T02:57:19.291Z,71.91
2023-02-17T03:01:28.520Z,72.19
2023-02-17T03:05:39.897Z,72.74
2023-02-17T03:09:44.562Z,73.09
2023-02-17T03:13:47.571Z,73.05
2023-02-17T03:17:51.485Z,72.72
2023-02-17T03:21:58.476Z,72.67
2023-02-17T03:26:03.736Z,72.78
2023-02-17T03:30:09.191Z,72.80
2023-02-17T03:34:12.390Z,73.25
2023-02-17T03:38:16.519Z,73.17
2023-02-17T03:42:21.649Z,73.02
2023-02-17T03:46:24.954Z,72.48
2023-02-17T03:50:28.550Z,72.45
2023-02-17T03:54:31.614Z,72.04
2023-02-17T03:58:38.715Z,72.26
2023-02-17T04:02:44.083Z,72.44
2023-02-17T04:06:47.975Z,72.93
2023-02-17T04:10:54.267Z,72.67
2023-02-17T04:14:59.133Z,72.90
2023-02-17T04:19:02.556Z,72.92
2023-02-17T04:23:06.209Z,73.34
2023-02-17T04:27:09.376Z,73.03
2023-02-17T04:31:14.973Z,73.54
2023-02-17T04:35:18.219Z,72.67
2023-02-17T04:39:21.729Z,73.04
2023-02-17T04:43:25.108Z,72.78
2023-02-17T04:47:30.324Z,73.21
2023-02-17T04:51:33.351Z,72.84
2023-02-17T04:55:37.049Z,73.11
2023-02-17T04:59:40.402Z,72.50
2023-02-17T05:03:45.299Z,72.22
2023-02-17T05:07:48.845Z,72.47
2023-02-17T05:11:52.289Z,73.11
2023-02-17T05:15:55.504Z,73.16
2023-02-17T05:20:00.718Z,73.10
2023-02-17T05:24:04.177Z,72.79
2023-02-17T05:28:07.810Z,73.41
2023-02-17T05:32:11.190Z,73.37
2023-02-17T05:36:16.734Z,72.37
2023-02-17T05:40:20.174Z,71.62
2023-02-17T05:44:23.869Z,72.35
2023-02-17T05:48:26.880Z,71.74
2023-02-17T05:52:31.878Z,71.24
2023-02-17T05:56:34.938Z,71.69
2023-02-17T06:00:38.678Z,71.22
2023-02-17T06:04:41.791Z,71.48
2023-02-17T06:08:46.565Z,71.98
2023-02-17T06:12:49.683Z,71.59
2023-02-17T06:16:54.226Z,70.98
2023-02-17T06:20:57.961Z,71.36
2023-02-17T06:25:02.834Z,71.86
2023-02-17T06:29:30.512Z,71.34
2023-02-17T06:33:34.760Z,71.77
2023-02-17T06:37:38.313Z,71.64
2023-02-17T06:41:44.959Z,71.37
2023-02-17T06:45:48.213Z,71.32
2023-02-17T06:49:53.012Z,70.72
2023-02-17T06:53:56.333Z,71.47
2023-02-17T06:58:02.323Z,71.67
2023-02-17T07:02:05.828Z,71.11
2023-02-17T07:06:09.515Z,71.11
2023-02-17T07:10:13.453Z,71.65
2023-02-17T07:14:18.692Z,70.88
2023-02-17T07:18:21.850Z,70.71
2023-02-17T07:22:27.369Z,69.85
2023-02-17T07:26:30.578Z,69.80
2023-02-17T07:30:39.214Z,68.76
2023-02-17T07:34:42.547Z,67.79
2023-02-17T07:38:46.145Z,67.77
2023-02-17T07:42:49.556Z,67.17
2023-02-17T07:46:54.735Z,67.95
2023-02-17T07:50:58.338Z,68.28
2023-02-17T07:55:01.708Z,67.43
2023-02-17T07:59:04.930Z,65.13
2023-02-17T08:03:10.848Z,62.68
2023-02-17T08:07:14.192Z,62.15
2023-02-17T08:11:35.916Z,62.73
2023-02-17T08:15:38.903Z,63.96
2023-02-17T08:19:48.468Z,65.31
2023-02-17T08:23:52.739Z,64.66
2023-02-17T08:27:56.663Z,65.08
2023-02-17T08:32:00.051Z,65.16
2023-02-17T08:36:10.349Z,65.30
2023-02-17T08:40:13.695Z,65.56
2023-02-17T08:44:19.396Z,65.64
2023-02-17T08:48:22.827Z,63.79
2023-02-17T08:52:27.572Z,63.01
2023-02-17T08:56:31.381Z,62.87
2023-02-17T09:00:35.735Z,61.54
2023-02-17T09:04:39.962Z,59.80
2023-02-17T09:08:45.969Z,58.16
2023-02-17T09:12:48.864Z,57.62
2023-02-17T09:16:52.494Z,56.10
2023-02-17T09:20:56.655Z,55.79
2023-02-17T09:25:01.228Z,53.44
2023-02-17T09:29:05.324Z,56.31
2023-02-17T09:33:08.828Z,51.90
2023-02-17T09:37:13.697Z,52.28
2023-02-17T09:41:23.967Z,51.47
2023-02-17T09:45:31.492Z,51.23
2023-02-17T09:49:40.502Z,52.18
2023-02-17T09:53:49.976Z,51.53
2023-02-17T09:58:00.581Z,53.59
2023-02-17T10:02:09.555Z,52.61
2023-02-17T10:06:17.670Z,53.70
2023-02-17T10:10:24.544Z,52.81
2023-02-17T10:14:32.891Z,51.62
2023-02-17T10:18:40.829Z,53.22
2023-02-17T10:22:49.142Z,52.45
2023-02-17T10:27:05.961Z,55.77
2023-02-17T10:31:14.531Z,55.99
2023-02-17T10:35:19.351Z,54.47
2023-02-17T10:39:42.439Z,53.43
2023-02-17T10:43:46.295Z,56.34
2023-02-17T10:47:52.766Z,56.72
2023-02-17T10:51:56.154Z,57.79
2023-02-17T10:56:05.228Z,59.15
2023-02-17T11:00:16.749Z,60.12
2023-02-17T11:04:21.723Z,60.56
2023-02-17T11:08:36.564Z,60.08
2023-02-17T11:12:42.862Z,60.13
2023-02-17T11:16:48.403Z,60.98
2023-02-17T11:21:02.578Z,60.21
2023-02-17T11:25:09.496Z,59.66
2023-02-17T11:29:18.617Z,59.82
2023-02-17T11:33:24.272Z,58.06
2023-02-17T11:37:32.341Z,56.53
2023-02-17T11:41:41.286Z,55.92
2023-02-17T11:45:51.874Z,55.96
2023-02-17T11:50:20.688Z,57.08
2023-02-17T11:54:37.694Z,56.09
2023-02-17T11:59:02.851Z,55.37
2023-02-17T12:03:44.597Z,55.19
2023-02-17T12:08:03.520Z,53.91
2023-02-17T12:12:18.348Z,54.37
2023-02-17T12:16:35.855Z,54.41
2023-02-17T12:20:50.205Z,54.99
2023-02-17T12:25:24.622Z,55.47
2023-02-17T12:29:44.023Z,56.57
2023-02-17T12:33:58.691Z,54.81
2023-02-17T12:38:09.316Z,55.42
2023-02-17T12:42:19.673Z,55.97
2023-02-17T12:46:30.358Z,56.11
2023-02-17T12:50:39.026Z,55.41
2023-02-17T12:54:47.207Z,56.05
2023-02-17T12:58:52.880Z,55.48
2023-02-17T13:03:01.509Z,55.41
2023-02-17T13:07:13.452Z,55.69
2023-02-17T13:11:30.166Z,55.54
2023-02-17T13:15:37.323Z,56.06
2023-02-17T13:19:42.557Z,54.11
2023-02-17T13:23:48.117Z,55.62
2023-02-17T13:27:51.412Z,53.90
2023-02-17T13:31:58.016Z,54.10
2023-02-17T13:36:14.304Z,54.97
2023-02-17T13:40:39.457Z,54.92
2023-02-17T13:44:43.206Z,54.31
2023-02-17T13:48:46.621Z,54.25
2023-02-17T13:52:51.660Z,52.88
2023-02-17T13:56:56.266Z,53.29
2023-02-17T14:01:01.171Z,53.36
2023-02-17T14:05:17.932Z,54.00
2023-02-17T14:09:36.231Z,53.92
2023-02-17T14:13:41.810Z,53.10
2023-02-17T14:17:45.249Z,54.77
2023-02-17T14:22:01.377Z,53.20
2023-02-17T14:26:14.247Z,54.86
2023-02-17T14:30:28.651Z,55.98
2023-02-17T14:34:35.589Z,53.59
2023-02-17T14:38:42.068Z,54.21
2023-02-17T14:42:47.828Z,54.90
2023-02-17T14:50:54.495Z,55.58
2023-02-17T14:55:00.628Z,54.46
2023-02-17T14:59:05.894Z,54.81
2023-02-17T15:03:09.292Z,54.74
2023-02-17T15:07:16.530Z,55.65
2023-02-17T15:11:23.100Z,56.04
2023-02-17T15:15:27.935Z,56.19
2023-02-17T15:19:31.136Z,56.22
2023-02-17T15:23:36.500Z,56.40
2023-02-17T15:27:39.396Z,55.83
2023-02-17T15:31:44.560Z,56.56
2023-02-17T15:35:49.259Z,56.31
2023-02-17T15:39:52.885Z,57.19
2023-02-17T15:43:58.227Z,57.85
2023-02-17T15:48:06.624Z,58.04
2023-02-17T15:52:13.932Z,58.18
2023-02-17T15:56:21.462Z,58.57
2023-02-17T16:00:27.415Z,58.97
2023-02-17T16:04:32.320Z,59.75
2023-02-17T16:08:35.322Z,59.71
2023-02-17T16:12:39.444Z,59.78
2023-02-17T16:16:43.530Z,59.98
2023-02-17T16:20:48.434Z,60.18
2023-02-17T16:24:51.311Z,60.16
2023-02-17T16:28:55.018Z,60.28
2023-02-17T16:32:58.362Z,60.43
2023-02-17T16:37:05.109Z,60.85
2023-02-17T16:41:08.535Z,61.16
2023-02-17T16:45:20.848Z,61.69
2023-02-17T16:49:32.568Z,61.63
2023-02-17T16:53:37.878Z,61.94
2023-02-17T16:57:42.409Z,61.92
2023-02-17T17:01:46.484Z,62.14
2023-02-17T17:05:49.942Z,62.23
2023-02-17T17:10:55.649Z,61.95
2023-02-17T17:14:59.972Z,62.38
2023-02-17T17:19:03.854Z,62.39
2023-02-17T17:23:09.514Z,62.45
2023-02-17T17:27:12.985Z,62.64
2023-02-17T17:31:18.243Z,62.58
2023-02-17T17:35:21.927Z,62.46
2023-02-17T17:39:25.606Z,62.57
2023-02-17T17:43:28.911Z,62.70
2023-02-17T17:47:33.528Z,62.73
2023-02-17T17:51:36.840Z,62.68
2023-02-17T17:55:40.673Z,62.54
2023-02-17T17:59:43.801Z,62.64
2023-02-17T18:03:49.643Z,62.90
2023-02-17T18:07:53.175Z,62.83
2023-02-17T18:11:57.603Z,62.91
2023-02-17T18:16:00.839Z,63.26
2023-02-17T18:20:06.967Z,63.18
2023-02-17T18:24:11.269Z,63.11
2023-02-17T18:28:14.409Z,63.56
2023-02-17T18:32:17.567Z,63.31
2023-02-17T18:36:25.397Z,63.67
2023-02-17T18:40:29.619Z,63.53
2023-02-17T18:44:32.492Z,63.84
2023-02-17T18:48:35.580Z,63.92
2023-02-17T18:52:40.785Z,63.83
2023-02-17T18:56:43.737Z,64.20
2023-02-17T19:00:47.348Z,64.11
2023-02-17T19:04:53.469Z,63.96
2023-02-17T19:08:58.131Z,63.66
2023-02-17T19:13:02.373Z,63.58
2023-02-17T19:17:05.950Z,63.49
2023-02-17T19:21:09.879Z,63.29
2023-02-17T19:25:14.425Z,63.54
2023-02-17T19:29:17.848Z,63.17
2023-02-17T19:33:21.675Z,63.43
2023-02-17T19:37:24.859Z,63.39
2023-02-17T19:41:30.093Z,63.49
2023-02-17T19:45:33.417Z,63.72
2023-02-17T19:49:36.982Z,63.67
2023-02-17T19:53:41.268Z,63.38
2023-02-17T19:57:45.999Z,63.28
2023-02-17T20:01:49.721Z,63.14
2023-02-17T20:05:53.282Z,63.14
2023-02-17T20:15:26.641Z,63.08
2023-02-17T20:19:30.380Z,62.94
2023-02-17T20:23:34.909Z,63.04
2023-02-17T20:27:38.602Z,63.31
2023-02-17T20:31:43.865Z,63.01
2023-02-17T20:35:47.141Z,62.48
2023-02-17T20:39:50.716Z,62.65
2023-02-17T20:43:54.172Z,62.49
2023-02-17T20:47:59.220Z,62.58
2023-02-17T20:52:02.598Z,62.17
2023-02-17T20:56:13.299Z,62.23
2023-02-17T21:00:21.486Z,62.27
2023-02-17T21:04:32.520Z,62.44
2023-02-17T21:08:35.438Z,62.04
2023-02-17T21:12:38.827Z,61.74
2023-02-17T21:16:42.956Z,61.26
2023-02-17T21:20:47.535Z,61.13
2023-02-17T21:24:50.885Z,61.01
2023-02-17T21:28:55.515Z,60.62
2023-02-17T21:32:58.621Z,60.77
2023-02-17T21:37:03.439Z,60.11
2023-02-17T21:41:08.216Z,59.83
2023-02-17T21:45:11.775Z,59.40
2023-02-17T21:49:15.827Z,58.90
2023-02-17T21:53:20.625Z,58.78
2023-02-17T21:57:25.757Z,58.51
2023-02-17T22:01:30.181Z,58.43
2023-02-17T22:05:33.485Z,58.21
2023-02-17T22:09:38.407Z,58.38
2023-02-17T22:13:41.687Z,58.37
2023-02-17T22:17:44.623Z,57.64
2023-02-17T22:21:48.601Z,58.00
2023-02-17T22:25:53.133Z,58.09
2023-02-17T22:29:56.853Z,58.26
2023-02-17T22:34:02.842Z,57.79
2023-02-17T22:38:05.697Z,57.62
2023-02-17T22:42:10.603Z,58.44
2023-02-17T22:46:16.645Z,58.07
2023-02-17T22:50:19.946Z,58.13
2023-02-17T22:54:23.124Z,57.58
2023-02-17T22:58:28.410Z,57.91
2023-02-17T23:02:35.656Z,57.45
2023-02-17T23:06:39.499Z,57.51
2023-02-17T23:10:42.589Z,56.72
2023-02-17T23:14:47.399Z,57.05
2023-02-17T23:18:50.831Z,57.43
2023-02-17T23:22:54.236Z,57.50
2023-02-17T23:27:00.341Z,57.55
2023-02-17T23:31:05.134Z,57.35
2023-02-17T23:35:08.480Z,57.39
2023-02-17T23:39:12.477Z,57.66
2023-02-17T23:43:15.777Z,58.20
2023-02-17T23:47:20.630Z,57.64
2023-02-17T23:51:24.284Z,58.26
2023-02-17T23:55:27.505Z,58.14
2023-02-17T23:59:30.741Z,58.03
